Weather at Paddock Field

Public forecast

Using degrees Fahrenheit for public forecast. Weather courtesy of forecast.io.

Closest aviation weather report (METAR) to Paddock Field

Closest report is Burlington Municipal Airport, 12.5 nm (23.1 km) ESE. Retrieved 2021/06/25 02:55 UTC (25 minutes ago):

KBUU 250255Z AUTO 17003KT 10SM 20/19 A2994 RMK AO2 T01990191 PWINO

Closest aviation forecast (TAF) to Paddock Field

Closest forecast is Southern Wisconsin Regional Airport, 21.6 nm (40.0 km) WSW. Retrieved 2021-06-25 00:46 UTC (3 hours ago):

TAF KJVL 242344Z 2500/2524 19011G18KT P6SM OVC060 FM250200 19009KT P6SM OVC025 FM250800 18005KT 6SM -SHRA BR VCTS OVC004CB FM251400 23005KT 6SM -SHRA BR VCTS OVC006CB FM251600 25005KT P6SM OVC010 FM251900 25006KT P6SM BKN020